Time;durP1;ratioP1;P1;durP2;ratioP2;P2;SDS_P1;SDS_P2;PMS_P1;PMS_P2;Temp;Humidity;BMP_temperature;BMP_pressure;BME280_temperature;BME280_humidity;BME280_pressure;Samples;Min_cycle;Max_cycle;Signal;HPM_P1;HPM_P2
2021/11/03 00:02:21;;;;;;;2.75;1.60;;;;;;;0.79;100.00;94326.69;5039449;28;20079;-78
2021/11/03 00:04:47;;;;;;;3.20;1.90;;;;;;;0.90;100.00;94329.41;5036340;28;20068;-78
2021/11/03 00:07:14;;;;;;;3.25;1.90;;;;;;;0.91;100.00;94320.63;5035204;28;20557;-79
2021/11/03 00:09:40;;;;;;;2.90;1.70;;;;;;;0.78;100.00;94326.91;5040729;28;20044;-78
2021/11/03 00:12:09;;;;;;;3.13;1.90;;;;;;;0.76;100.00;94321.97;5039717;28;20045;-78
2021/11/03 00:14:35;;;;;;;3.22;2.00;;;;;;;0.77;100.00;94326.09;5037554;28;20049;-79
2021/11/03 00:17:01;;;;;;;3.65;1.90;;;;;;;0.87;100.00;94322.88;5022812;28;20423;-79
2021/11/03 00:19:26;;;;;;;4.53;2.10;;;;;;;0.81;100.00;94316.84;5029305;28;20069;-78
2021/11/03 00:21:52;;;;;;;3.60;1.92;;;;;;;0.85;100.00;94317.16;5039337;28;20517;-78
2021/11/03 00:24:17;;;;;;;4.03;1.80;;;;;;;0.75;100.00;94307.44;5039924;28;20055;-78
2021/11/03 00:26:43;;;;;;;3.67;1.90;;;;;;;0.82;100.00;94313.25;5037206;28;20057;-78
2021/11/03 00:29:09;;;;;;;2.88;1.70;;;;;;;0.86;100.00;94303.97;5037058;28;20042;-78
2021/11/03 00:31:35;;;;;;;2.78;1.73;;;;;;;0.88;100.00;94292.56;5037500;28;20095;-78
2021/11/03 00:34:00;;;;;;;2.50;1.52;;;;;;;0.85;100.00;94281.69;5037370;28;20082;-78
2021/11/03 00:36:26;;;;;;;2.85;1.80;;;;;;;0.85;100.00;94279.09;5039066;28;20131;-79
2021/11/03 00:38:51;;;;;;;3.53;2.00;;;;;;;0.82;100.00;94271.00;5035102;28;20042;-78
2021/11/03 00:41:17;;;;;;;3.45;1.92;;;;;;;0.52;100.00;94262.56;5033264;28;20048;-78
2021/11/03 00:43:43;;;;;;;3.05;1.90;;;;;;;0.20;100.00;94258.97;5037261;28;20076;-78
2021/11/03 00:46:08;;;;;;;4.57;2.00;;;;;;;0.14;100.00;94253.72;5038667;28;20068;-78
2021/11/03 00:48:34;;;;;;;2.92;1.90;;;;;;;0.10;100.00;94244.88;5036442;28;20045;-79
2021/11/03 00:51:00;;;;;;;3.95;2.00;;;;;;;0.29;100.00;94236.88;5031423;28;20044;-79
2021/11/03 00:53:26;;;;;;;2.97;1.90;;;;;;;0.48;100.00;94242.59;5035819;28;20046;-79
2021/11/03 00:55:52;;;;;;;3.55;1.75;;;;;;;0.58;100.00;94241.94;5035741;28;20049;-78
2021/11/03 00:58:17;;;;;;;3.25;1.80;;;;;;;0.69;100.00;94246.25;5036334;28;20053;-79
2021/11/03 01:00:44;;;;;;;3.20;1.70;;;;;;;0.74;100.00;94238.53;5030401;28;20045;-78
2021/11/03 01:03:09;;;;;;;2.35;1.52;;;;;;;0.78;100.00;94234.44;5037134;28;20414;-79
2021/11/03 01:05:38;;;;;;;3.40;1.60;;;;;;;0.79;100.00;94236.03;5037444;28;20045;-78
2021/11/03 01:08:08;;;;;;;2.63;1.60;;;;;;;0.75;100.00;94227.16;5035921;28;20045;-79
2021/11/03 01:10:34;;;;;;;2.85;1.67;;;;;;;0.66;100.00;94236.34;5029705;28;20041;-79
2021/11/03 01:13:00;;;;;;;4.50;1.80;;;;;;;0.42;100.00;94233.97;5037390;28;20040;-78
2021/11/03 01:15:26;;;;;;;3.33;1.60;;;;;;;0.33;100.00;94243.13;5036796;28;20041;-79
2021/11/03 01:17:55;;;;;;;3.53;1.98;;;;;;;0.44;100.00;94231.13;5036398;28;20056;-79
2021/11/03 01:20:21;;;;;;;3.17;1.75;;;;;;;0.36;100.00;94231.53;5029371;28;20033;-79
2021/11/03 01:22:46;;;;;;;2.35;1.60;;;;;;;0.19;100.00;94236.69;5036673;28;20042;-79
2021/11/03 01:25:14;;;;;;;2.58;1.60;;;;;;;0.24;100.00;94229.78;5035778;28;20406;-79
2021/11/03 01:27:40;;;;;;;3.55;1.67;;;;;;;0.13;100.00;94228.88;5037570;28;20044;-80
2021/11/03 01:30:09;;;;;;;2.42;1.50;;;;;;;0.15;100.00;94226.81;5030058;28;20049;-79
2021/11/03 01:32:35;;;;;;;3.40;1.58;;;;;;;0.24;100.00;94229.78;5029172;28;20500;-78
2021/11/03 01:35:01;;;;;;;2.35;1.40;;;;;;;0.28;100.00;94232.72;5027451;28;20075;-78
2021/11/03 01:37:26;;;;;;;2.22;1.48;;;;;;;0.27;100.00;94223.38;5034422;28;20495;-78
2021/11/03 01:39:52;;;;;;;3.70;1.60;;;;;;;0.21;100.00;94226.91;5035177;28;20048;-78
2021/11/03 01:42:18;;;;;;;2.83;1.50;;;;;;;0.02;100.00;94232.31;5036347;28;20045;-79
2021/11/03 01:44:43;;;;;;;2.35;1.50;;;;;;;-0.01;100.00;94222.44;5038570;28;20040;-79
2021/11/03 01:47:37;;;;;;;2.63;1.50;;;;;;;0.15;100.00;94221.66;5041046;28;20053;-79
2021/11/03 01:50:11;;;;;;;2.22;1.50;;;;;;;0.11;100.00;94215.38;5038807;28;20049;-79
2021/11/03 01:52:37;;;;;;;2.25;1.60;;;;;;;0.11;100.00;94210.19;5039448;28;20098;-79
2021/11/03 01:55:03;;;;;;;2.63;1.63;;;;;;;-0.02;100.00;94205.34;5035580;28;20128;-78
2021/11/03 01:57:35;;;;;;;2.42;1.50;;;;;;;0.08;100.00;94205.50;5039641;28;20029;-79
2021/11/03 02:00:15;;;;;;;2.22;1.45;;;;;;;0.16;100.00;94207.69;5032473;28;20426;-79
2021/11/03 02:02:42;;;;;;;2.95;1.50;;;;;;;0.02;100.00;94190.94;5039325;28;20048;-78
2021/11/03 02:05:10;;;;;;;3.25;1.50;;;;;;;-0.14;100.00;94192.50;5030673;28;20564;-78
2021/11/03 02:07:37;;;;;;;1.55;1.20;;;;;;;-0.10;100.00;94192.78;5024306;28;20061;-79
2021/11/03 02:10:04;;;;;;;2.90;1.60;;;;;;;-0.03;100.00;94183.06;5037412;28;20057;-79
2021/11/03 02:12:30;;;;;;;2.55;1.55;;;;;;;-0.15;100.00;94174.63;5039008;28;20119;-78
2021/11/03 02:14:56;;;;;;;1.90;1.45;;;;;;;-0.22;100.00;94165.19;5032344;28;20124;-78
2021/11/03 02:17:24;;;;;;;2.63;1.40;;;;;;;-0.22;100.00;94154.84;5022348;28;20042;-80
2021/11/03 02:19:53;;;;;;;3.05;1.30;;;;;;;-0.30;100.00;94146.72;5032916;28;20064;-79
2021/11/03 02:22:50;;;;;;;2.67;1.45;;;;;;;-0.33;100.00;94150.56;5033263;28;20042;-79
2021/11/03 02:25:31;;;;;;;3.78;1.42;;;;;;;-0.18;100.00;94139.66;5045032;28;20041;-78
2021/11/03 02:27:58;;;;;;;2.63;1.40;;;;;;;-0.04;100.00;94145.31;5038678;28;20037;-79
2021/11/03 02:30:26;;;;;;;2.10;1.50;;;;;;;-0.16;100.00;94147.19;5054796;28;20049;-78
2021/11/03 02:32:59;;;;;;;2.03;1.35;;;;;;;-0.23;100.00;94142.97;5039615;28;20581;-79
2021/11/03 02:35:25;;;;;;;3.45;1.65;;;;;;;-0.29;100.00;94143.88;5042439;28;20041;-78
2021/11/03 02:37:54;;;;;;;2.45;1.60;;;;;;;-0.19;100.00;94144.06;5039970;28;20042;-78
2021/11/03 02:40:51;;;;;;;1.40;1.25;;;;;;;-0.06;100.00;94137.00;5037784;28;20041;-78
2021/11/03 02:43:22;;;;;;;2.03;1.30;;;;;;;-0.07;100.00;94140.59;5035043;28;20045;-78
2021/11/03 02:45:55;;;;;;;2.35;1.23;;;;;;;-0.16;100.00;94136.84;5035583;28;20037;-78
2021/11/03 02:48:24;;;;;;;2.38;1.38;;;;;;;-0.33;100.00;94131.66;5036861;28;20037;-79
2021/11/03 02:50:59;;;;;;;2.28;1.30;;;;;;;-0.68;100.00;94130.84;5037622;28;20095;-78
2021/11/03 02:53:26;;;;;;;1.90;1.35;;;;;;;-0.74;100.00;94126.63;5038018;28;20057;-78
2021/11/03 02:55:52;;;;;;;3.63;1.40;;;;;;;-0.51;100.00;94119.78;5035060;28;20049;-78
2021/11/03 02:58:17;;;;;;;2.50;1.23;;;;;;;-0.42;100.00;94115.78;5037390;28;20048;-80
2021/11/03 03:00:43;;;;;;;1.90;1.17;;;;;;;-0.24;100.00;94125.09;5038602;28;20418;-79
2021/11/03 03:03:09;;;;;;;2.15;1.52;;;;;;;-0.20;100.00;94111.47;5030930;28;20061;-79
2021/11/03 03:05:35;;;;;;;1.85;1.20;;;;;;;-0.10;100.00;94115.22;5026231;28;20042;-79
2021/11/03 03:08:01;;;;;;;1.70;1.30;;;;;;;-0.16;100.00;94105.81;5044691;28;20359;-78
2021/11/03 03:10:27;;;;;;;3.75;1.40;;;;;;;-0.22;100.00;94092.81;5037603;28;20587;-78
2021/11/03 03:12:52;;;;;;;1.60;1.30;;;;;;;-0.29;100.00;94092.19;5035602;28;20048;-77
2021/11/03 03:15:18;;;;;;;2.40;1.45;;;;;;;-0.19;100.00;94087.19;5035085;28;20054;-78
2021/11/03 03:17:43;;;;;;;2.80;1.40;;;;;;;-0.14;100.00;94077.91;5038407;28;20048;-79
2021/11/03 03:20:09;;;;;;;1.35;1.23;;;;;;;-0.12;100.00;94070.72;5052601;28;20148;-78
2021/11/03 03:22:36;;;;;;;1.92;1.40;;;;;;;-0.24;100.00;94074.16;5029000;28;20041;-78
2021/11/03 03:25:02;;;;;;;2.63;1.55;;;;;;;-0.08;100.00;94066.63;5034855;28;20056;-78
2021/11/03 03:27:28;;;;;;;2.95;1.42;;;;;;;-0.03;100.00;94054.56;5036256;28;20044;-79
2021/11/03 03:29:54;;;;;;;3.03;1.70;;;;;;;0.02;100.00;94055.66;5026873;28;20037;-78
2021/11/03 03:32:22;;;;;;;3.38;1.90;;;;;;;0.00;100.00;94068.81;5025888;28;20147;-80
2021/11/03 03:34:48;;;;;;;1.65;1.40;;;;;;;0.02;100.00;94071.94;5022593;28;20502;-79
2021/11/03 03:37:13;;;;;;;3.08;1.45;;;;;;;0.14;100.00;94077.81;5029860;28;20041;-78
2021/11/03 03:39:39;;;;;;;2.13;1.42;;;;;;;0.14;100.00;94085.56;5015805;28;20042;-79
2021/11/03 03:42:12;;;;;;;2.42;1.60;;;;;;;0.09;100.00;94082.91;5029922;28;20679;-79
2021/11/03 03:44:38;;;;;;;3.13;1.77;;;;;;;0.00;100.00;94084.34;5033021;28;20329;-80
2021/11/03 03:47:04;;;;;;;2.50;1.70;;;;;;;-0.11;100.00;94077.47;5037383;28;20045;-79
2021/11/03 03:49:30;;;;;;;1.63;1.20;;;;;;;-0.20;100.00;94084.84;5037130;28;20038;-79
2021/11/03 03:51:56;;;;;;;3.40;1.40;;;;;;;-0.16;100.00;94085.13;5032573;28;20101;-79
2021/11/03 03:54:22;;;;;;;2.28;1.55;;;;;;;-0.08;100.00;94097.66;5034699;28;20536;-79
2021/11/03 03:56:48;;;;;;;2.08;1.60;;;;;;;-0.05;100.00;94097.19;5034928;28;20076;-78
2021/11/03 03:59:15;;;;;;;2.08;1.42;;;;;;;-0.25;100.00;94088.13;5036362;28;20077;-79
2021/11/03 04:01:41;;;;;;;3.08;1.60;;;;;;;-0.44;100.00;94081.63;5035491;28;20064;-78
2021/11/03 04:04:07;;;;;;;1.70;1.38;;;;;;;-0.45;100.00;94082.63;5030615;28;20053;-79
2021/11/03 04:06:33;;;;;;;4.90;1.80;;;;;;;-0.40;100.00;94069.81;5023589;28;20042;-78
2021/11/03 04:08:58;;;;;;;3.03;1.80;;;;;;;-0.43;100.00;94075.44;5016626;28;20427;-79
2021/11/03 04:11:24;;;;;;;3.17;1.50;;;;;;;-0.36;100.00;94070.88;5020508;28;20053;-78
2021/11/03 04:13:49;;;;;;;3.10;1.50;;;;;;;-0.38;100.00;94072.94;5029886;28;20061;-78
2021/11/03 04:16:15;;;;;;;3.13;1.80;;;;;;;-0.23;100.00;94078.34;5032213;28;20041;-78
2021/11/03 04:18:40;;;;;;;3.25;1.98;;;;;;;-0.10;100.00;94073.84;5031269;28;20049;-79
2021/11/03 04:21:07;;;;;;;3.38;1.88;;;;;;;-0.08;100.00;94077.75;5029775;28;20045;-77
2021/11/03 04:23:32;;;;;;;3.00;2.00;;;;;;;-0.04;100.00;94084.03;5029525;28;20406;-78
2021/11/03 04:25:59;;;;;;;4.10;2.20;;;;;;;0.00;100.00;94079.19;5023157;28;20046;-78
2021/11/03 04:28:25;;;;;;;3.80;2.05;;;;;;;-0.12;100.00;94070.72;5030869;28;20045;-78
2021/11/03 04:30:51;;;;;;;4.78;2.08;;;;;;;-0.44;100.00;94071.28;5028035;28;20041;-79
2021/11/03 04:33:18;;;;;;;8.73;2.25;;;;;;;-0.56;100.00;94066.97;5026372;28;20045;-78
2021/11/03 04:35:45;;;;;;;3.55;2.00;;;;;;;-0.60;100.00;94063.28;5029932;28;20414;-78
2021/11/03 04:38:11;;;;;;;4.32;2.17;;;;;;;-0.44;100.00;94066.13;5026996;28;20057;-79
2021/11/03 04:40:36;;;;;;;4.30;2.25;;;;;;;-0.51;100.00;94062.91;5020847;28;20045;-78
2021/11/03 04:43:02;;;;;;;3.55;2.25;;;;;;;-0.72;100.00;94047.06;5030087;28;20053;-77
2021/11/03 04:45:28;;;;;;;4.35;2.10;;;;;;;-0.68;100.00;94043.00;5022728;28;20091;-79
2021/11/03 04:47:54;;;;;;;4.78;2.10;;;;;;;-0.44;100.00;94053.19;5030236;28;20388;-78
2021/11/03 04:50:28;;;;;;;3.75;2.22;;;;;;;-0.37;100.00;94043.47;5030583;28;20091;-79
2021/11/03 04:52:54;;;;;;;5.10;2.25;;;;;;;-0.55;100.00;94032.38;5023856;28;20064;-79
2021/11/03 04:55:21;;;;;;;5.70;2.75;;;;;;;-0.74;100.00;94028.47;5029683;28;20681;-79
2021/11/03 04:57:47;;;;;;;5.47;2.60;;;;;;;-1.10;100.00;94020.13;5042388;28;20049;-78
2021/11/03 05:00:23;;;;;;;5.20;2.70;;;;;;;-1.10;100.00;94025.28;5030477;28;20073;-79
2021/11/03 05:02:49;;;;;;;3.70;2.30;;;;;;;-0.80;100.00;94029.41;5030893;28;20041;-78
2021/11/03 05:05:15;;;;;;;3.83;2.28;;;;;;;-0.66;100.00;94025.50;5027767;28;20053;-78
2021/11/03 05:07:41;;;;;;;5.15;2.60;;;;;;;-0.79;100.00;94021.41;5017244;28;20411;-77
2021/11/03 05:10:08;;;;;;;4.68;2.60;;;;;;;-0.75;100.00;94021.72;5024409;28;20041;-78
2021/11/03 05:12:33;;;;;;;5.55;2.50;;;;;;;-0.78;100.00;94022.19;5024160;28;20042;-78
2021/11/03 05:14:59;;;;;;;4.80;2.35;;;;;;;-0.68;100.00;94021.56;5029106;28;20044;-78
2021/11/03 05:17:24;;;;;;;4.82;2.70;;;;;;;-0.98;100.00;94018.25;5031760;28;20041;-78
2021/11/03 05:19:50;;;;;;;6.15;3.05;;;;;;;-1.11;100.00;94018.56;5028076;28;20042;-78
2021/11/03 05:22:18;;;;;;;6.72;2.67;;;;;;;-0.96;100.00;94011.06;5034271;28;20163;-78
2021/11/03 05:24:44;;;;;;;4.85;2.50;;;;;;;-0.85;100.00;94006.84;5047377;28;20049;-77
2021/11/03 05:27:13;;;;;;;5.80;2.70;;;;;;;-0.84;100.00;94012.81;5020289;28;20161;-78
2021/11/03 05:29:38;;;;;;;4.85;2.63;;;;;;;-0.76;100.00;94009.81;5029939;28;20521;-78
2021/11/03 05:32:04;;;;;;;8.55;2.53;;;;;;;-0.70;100.00;94004.50;5045254;28;20162;-78
2021/11/03 05:34:30;;;;;;;7.50;3.00;;;;;;;-0.73;100.00;94004.19;5028576;28;20049;-77
2021/11/03 05:36:55;;;;;;;6.50;3.22;;;;;;;-0.76;100.00;93999.47;5030765;28;20056;-78
2021/11/03 05:39:21;;;;;;;7.32;3.28;;;;;;;-0.83;100.00;93994.50;5032015;28;20045;-78
2021/11/03 05:41:47;;;;;;;6.55;3.55;;;;;;;-0.76;100.00;93989.16;5031301;28;20056;-78
2021/11/03 05:44:16;;;;;;;7.07;3.38;;;;;;;-0.59;100.00;94005.44;5023200;28;20057;-78
2021/11/03 05:46:48;;;;;;;7.88;3.50;;;;;;;-0.56;100.00;93999.78;5022394;28;20064;-78
2021/11/03 05:49:14;;;;;;;8.25;3.55;;;;;;;-0.55;100.00;94001.38;5043054;28;20041;-78
2021/11/03 05:51:43;;;;;;;6.50;3.45;;;;;;;-0.56;100.00;93994.63;5030476;28;20048;-77
2021/11/03 05:54:09;;;;;;;6.88;3.75;;;;;;;-0.70;100.00;93981.25;5029977;28;20053;-78
2021/11/03 05:56:35;;;;;;;6.97;4.13;;;;;;;-0.51;100.00;93990.56;5025233;28;20041;-78
2021/11/03 05:59:01;;;;;;;8.13;3.97;;;;;;;-0.33;100.00;93997.25;5026194;28;20794;-77
2021/11/03 06:01:27;;;;;;;7.45;4.22;;;;;;;-0.38;100.00;93990.22;5029477;28;20045;-78
2021/11/03 06:03:53;;;;;;;7.72;4.00;;;;;;;-0.34;100.00;93991.31;5058018;28;20048;-78
2021/11/03 06:06:20;;;;;;;7.57;4.47;;;;;;;-0.41;100.00;93990.69;5041830;28;20049;-78
2021/11/03 06:08:48;;;;;;;8.05;4.00;;;;;;;-0.39;100.00;93988.63;5029941;28;20048;-78
2021/11/03 06:11:15;;;;;;;10.80;4.90;;;;;;;-0.40;100.00;93992.28;5023133;28;20116;-78
2021/11/03 06:13:42;;;;;;;11.10;4.90;;;;;;;-0.34;100.00;93986.13;5031027;28;20085;-78
2021/11/03 06:16:08;;;;;;;12.70;5.97;;;;;;;-0.33;100.00;93972.19;5031195;28;20108;-78
2021/11/03 06:18:34;;;;;;;14.25;6.25;;;;;;;-0.20;100.00;93971.84;5022750;28;20046;-78
2021/11/03 06:20:59;;;;;;;12.05;5.50;;;;;;;-0.15;100.00;93978.09;5028034;28;20514;-77
2021/11/03 06:23:26;;;;;;;10.27;4.90;;;;;;;-0.10;100.00;93976.38;5046538;28;20083;-77
2021/11/03 06:25:52;;;;;;;9.02;4.65;;;;;;;-0.04;100.00;93977.22;5022673;28;20846;-78
2021/11/03 06:28:18;;;;;;;9.60;4.10;;;;;;;-0.08;100.00;93978.72;5024044;28;20124;-78
2021/11/03 06:30:44;;;;;;;8.18;4.07;;;;;;;-0.06;100.00;93981.81;5015885;28;20052;-78
2021/11/03 06:33:10;;;;;;;12.60;4.90;;;;;;;-0.07;100.00;93985.44;5030989;28;20114;-78
2021/11/03 06:35:37;;;;;;;9.40;4.75;;;;;;;-0.07;100.00;93985.44;5029784;28;20045;-78
2021/11/03 06:38:06;;;;;;;12.63;4.75;;;;;;;-0.13;100.00;93981.22;5030144;28;20123;-78
2021/11/03 06:40:32;;;;;;;13.40;5.70;;;;;;;-0.15;100.00;93978.09;5030814;28;20048;-78
2021/11/03 06:42:58;;;;;;;10.38;5.82;;;;;;;-0.05;100.00;93983.41;5022867;28;20042;-78
2021/11/03 06:45:24;;;;;;;10.68;5.00;;;;;;;0.09;100.00;93979.44;5025182;28;20053;-78
2021/11/03 06:47:51;;;;;;;10.02;4.53;;;;;;;0.12;100.00;93975.59;5022903;28;20068;-77
2021/11/03 06:50:25;;;;;;;10.70;4.72;;;;;;;0.04;100.00;93981.94;5031057;28;20502;-77
2021/11/03 06:52:51;;;;;;;;;;;;;;;0.05;100.00;93973.19;5030140;28;20052;-78
2021/11/03 06:55:17;;;;;;;7.88;4.32;;;;;;;0.22;100.00;93972.34;5030671;28;19921;-78
2021/11/03 06:57:43;;;;;;;10.55;5.32;;;;;;;0.26;100.00;93963.03;5030287;28;20045;-79
2021/11/03 07:00:13;;;;;;;12.27;5.30;;;;;;;0.43;100.00;93968.94;5030528;28;20045;-78
2021/11/03 07:02:39;;;;;;;11.52;5.22;;;;;;;0.49;100.00;93957.63;5020883;28;20601;-77
2021/11/03 07:05:05;;;;;;;9.18;4.63;;;;;;;0.60;100.00;93952.53;5029941;28;20042;-78
2021/11/03 07:07:31;;;;;;;9.73;4.82;;;;;;;0.68;100.00;93965.03;5030144;28;20088;-78
2021/11/03 07:09:56;;;;;;;10.48;5.35;;;;;;;0.65;100.00;93957.75;5024401;28;20092;-78
2021/11/03 07:12:22;;;;;;;10.07;4.50;;;;;;;0.71;100.00;93959.38;5045689;28;20073;-78
2021/11/03 07:14:48;;;;;;;8.70;4.55;;;;;;;0.75;100.00;93955.25;5030193;28;20042;-78
2021/11/03 07:17:14;;;;;;;9.18;4.75;;;;;;;0.77;100.00;93953.19;5030836;28;20056;-78
2021/11/03 07:19:40;;;;;;;11.27;4.85;;;;;;;0.96;100.00;93958.81;5049472;28;20045;-78
2021/11/03 07:22:06;;;;;;;9.80;4.82;;;;;;;1.14;100.00;93959.47;5053652;28;20041;-78
2021/11/03 07:24:32;;;;;;;11.10;5.00;;;;;;;1.18;100.00;93953.53;5025913;28;20049;-78
2021/11/03 07:26:57;;;;;;;9.40;5.05;;;;;;;1.24;100.00;93951.00;5030954;28;20038;-78
2021/11/03 07:29:23;;;;;;;11.05;5.78;;;;;;;1.26;100.00;93948.91;5015763;28;20057;-78
2021/11/03 07:31:49;;;;;;;10.38;5.68;;;;;;;1.26;100.00;93941.16;5016347;28;20087;-77
2021/11/03 07:34:15;;;;;;;11.55;5.88;;;;;;;1.31;100.00;93941.97;5025161;28;20099;-76
2021/11/03 07:36:41;;;;;;;14.68;6.18;;;;;;;1.38;100.00;93947.72;5026783;28;20037;-76
2021/11/03 07:39:06;;;;;;;14.80;5.93;;;;;;;1.52;100.00;93944.66;5015412;28;20107;-76
2021/11/03 07:41:34;;;;;;;9.68;5.28;;;;;;;1.63;100.00;93933.31;5018674;28;20049;-75
2021/11/03 07:44:01;;;;;;;11.52;5.90;;;;;;;1.79;100.00;93936.78;5028558;28;20092;-78
2021/11/03 07:46:26;;;;;;;12.90;5.53;;;;;;;1.94;100.00;93932.69;5045479;28;20498;-76
2021/11/03 07:48:53;;;;;;;14.13;4.95;;;;;;;2.20;100.00;93936.94;5020823;28;20069;-77
2021/11/03 07:51:19;;;;;;;11.27;5.40;;;;;;;2.32;100.00;93930.75;5027143;28;20203;-77
2021/11/03 07:53:48;;;;;;;8.02;4.85;;;;;;;2.36;100.00;93918.81;5027882;28;20037;-77
2021/11/03 07:56:19;;;;;;;9.43;4.93;;;;;;;2.31;100.00;93929.94;5028625;28;20112;-78
2021/11/03 07:58:46;;;;;;;8.10;4.88;;;;;;;2.33;100.00;93924.50;5026550;28;20034;-79
2021/11/03 08:01:12;;;;;;;8.45;4.72;;;;;;;2.35;100.00;93922.44;5027204;28;20049;-80
2021/11/03 08:03:38;;;;;;;7.85;4.40;;;;;;;2.43;100.00;93919.34;5026788;28;20037;-79
2021/11/03 08:06:06;;;;;;;8.65;4.35;;;;;;;2.52;100.00;93925.59;5038972;28;20050;-78
2021/11/03 08:08:34;;;;;;;6.72;4.07;;;;;;;2.77;100.00;93921.44;5022383;28;20052;-78
2021/11/03 08:11:00;;;;;;;7.75;4.18;;;;;;;2.98;100.00;93942.28;5018820;28;20111;-78
2021/11/03 08:13:30;;;;;;;7.40;4.13;;;;;;;3.07;100.00;93941.47;5024973;28;20045;-78
2021/11/03 08:15:57;;;;;;;6.18;3.70;;;;;;;3.17;100.00;93927.69;5048212;28;20062;-77
2021/11/03 08:18:27;;;;;;;7.20;3.92;;;;;;;3.00;100.00;93922.00;5049220;28;20053;-77
2021/11/03 08:20:54;;;;;;;5.47;3.40;;;;;;;3.14;100.00;93923.03;5043315;28;20038;-78
2021/11/03 08:23:19;;;;;;;6.75;3.92;;;;;;;3.24;100.00;93923.00;5036456;28;20129;-79
2021/11/03 08:25:45;;;;;;;6.38;4.00;;;;;;;3.15;100.00;93929.00;5027225;28;20128;-80
2021/11/03 08:28:13;;;;;;;7.10;3.95;;;;;;;3.28;100.00;93926.66;5030263;28;20621;-78
2021/11/03 08:30:41;;;;;;;6.18;3.47;;;;;;;3.61;100.00;93914.09;5022156;28;20072;-78
2021/11/03 08:33:15;;;;;;;7.05;4.22;;;;;;;3.54;100.00;93926.59;5024809;28;20105;-79
2021/11/03 08:35:45;;;;;;;6.40;3.58;;;;;;;3.66;100.00;93922.94;5030316;28;20050;-81
2021/11/03 08:38:16;;;;;;;6.97;3.83;;;;;;;3.66;100.00;93928.16;5056018;28;20472;-78
2021/11/03 08:40:44;;;;;;;7.00;3.53;;;;;;;3.79;100.00;93917.16;5034368;28;20466;-78
2021/11/03 08:43:11;;;;;;;7.90;3.80;;;;;;;3.60;100.00;93903.97;5023860;28;20495;-78
2021/11/03 08:45:37;;;;;;;5.68;3.53;;;;;;;3.92;100.00;93890.59;5023752;28;20065;-79
2021/11/03 08:48:04;;;;;;;7.70;3.95;;;;;;;3.94;100.00;93909.31;5028338;28;20076;-79
2021/11/03 08:50:33;;;;;;;6.60;3.60;;;;;;;4.22;100.00;93909.72;5028514;28;20503;-78
2021/11/03 08:52:59;;;;;;;6.88;3.65;;;;;;;4.41;100.00;93907.28;5026891;28;20060;-80
2021/11/03 08:55:26;;;;;;;5.72;3.53;;;;;;;4.52;99.67;93892.34;5033637;28;20069;-76
2021/11/03 08:57:54;;;;;;;6.40;3.72;;;;;;;4.47;100.00;93885.34;5027134;28;20061;-77
2021/11/03 09:00:23;;;;;;;6.22;3.60;;;;;;;4.41;100.00;93893.47;5018248;28;20113;-80
2021/11/03 09:02:49;;;;;;;6.80;3.97;;;;;;;4.71;100.00;93889.09;5027987;28;20046;-78
2021/11/03 09:05:15;;;;;;;9.10;3.80;;;;;;;4.88;97.89;93884.28;5030816;28;20086;-77
2021/11/03 09:07:42;;;;;;;8.02;3.80;;;;;;;4.74;99.79;93885.94;5023819;28;20063;-77
2021/11/03 09:10:11;;;;;;;5.57;3.45;;;;;;;4.56;99.88;93888.16;5030532;28;20049;-77
2021/11/03 09:12:38;;;;;;;8.55;3.83;;;;;;;4.85;98.80;93875.16;5029562;28;20050;-77
2021/11/03 09:15:05;;;;;;;7.60;3.58;;;;;;;4.89;98.24;93885.84;5029232;28;20092;-77
2021/11/03 09:17:31;;;;;;;8.50;3.47;;;;;;;5.02;97.46;93874.78;5030214;28;20041;-76
2021/11/03 09:19:57;;;;;;;5.47;3.10;;;;;;;5.08;97.93;93866.94;5021792;28;20072;-77
2021/11/03 09:22:23;;;;;;;7.22;3.35;;;;;;;5.27;96.56;93867.81;5027774;28;20061;-77
2021/11/03 09:24:49;;;;;;;6.97;3.10;;;;;;;5.20;98.22;93864.72;5028793;28;20183;-77
2021/11/03 09:27:15;;;;;;;5.57;3.25;;;;;;;5.48;95.20;93850.09;5029070;28;20506;-77
2021/11/03 09:29:49;;;;;;;5.95;3.42;;;;;;;5.36;97.25;93849.72;5030302;28;20120;-78
2021/11/03 09:32:19;;;;;;;6.45;3.38;;;;;;;5.61;96.42;93853.88;5029657;28;20049;-76
2021/11/03 09:34:49;;;;;;;7.32;3.08;;;;;;;5.52;95.44;93845.88;5027721;28;20049;-77
2021/11/03 09:37:17;;;;;;;6.47;3.17;;;;;;;5.50;96.95;93836.75;5024672;28;20080;-77
2021/11/03 09:39:47;;;;;;;6.93;3.08;;;;;;;5.41;98.36;93828.00;5028634;28;20396;-77
2021/11/03 09:42:14;;;;;;;7.88;2.90;;;;;;;5.46;96.41;93827.94;5018443;28;20045;-77
2021/11/03 09:44:43;;;;;;;4.88;2.70;;;;;;;5.46;96.56;93828.72;5030834;28;20041;-77
2021/11/03 09:47:15;;;;;;;4.72;2.47;;;;;;;5.79;95.08;93841.13;5028083;28;20041;-77
2021/11/03 09:49:46;;;;;;;5.70;2.58;;;;;;;6.04;92.33;93840.84;5028656;28;20504;-77
2021/11/03 09:52:27;;;;;;;5.10;2.65;;;;;;;6.04;92.66;93840.84;5026070;28;20038;-77
2021/11/03 09:55:17;;;;;;;7.00;2.90;;;;;;;5.95;95.02;93831.28;5033541;28;20043;-77
2021/11/03 09:57:48;;;;;;;5.85;2.63;;;;;;;5.81;96.17;93825.97;5026587;28;20491;-77
2021/11/03 10:00:40;;;;;;;4.72;2.63;;;;;;;5.95;95.38;93821.63;5023056;28;20042;-77
2021/11/03 10:03:29;;;;;;;5.32;2.38;;;;;;;6.20;93.30;93827.59;5022710;28;20046;-77
2021/11/03 10:05:58;;;;;;;5.00;2.63;;;;;;;6.36;91.91;93828.91;5029029;28;20418;-78
2021/11/03 10:08:28;;;;;;;6.20;2.50;;;;;;;6.26;91.88;93823.84;5030936;28;20045;-76
2021/11/03 10:10:56;;;;;;;4.65;2.35;;;;;;;6.17;94.16;93822.94;5029557;28;20638;-79
2021/11/03 10:13:26;;;;;;;5.53;3.40;;;;;;;5.90;93.94;93824.28;5030842;28;20076;-78
2021/11/03 10:16:21;;;;;;;6.65;2.70;;;;;;;6.22;93.96;93820.22;5022679;28;20049;-78
2021/11/03 10:18:59;;;;;;;5.93;2.47;;;;;;;6.03;93.88;93818.41;5027714;28;20499;-78
2021/11/03 10:21:30;;;;;;;4.97;2.30;;;;;;;5.93;94.86;93821.13;5027107;28;20038;-78
2021/11/03 10:24:00;;;;;;;5.13;2.63;;;;;;;5.94;95.78;93819.28;5024678;28;20118;-78
2021/11/03 10:26:29;;;;;;;5.05;2.60;;;;;;;6.02;96.88;93811.63;5029639;28;20042;-77
2021/11/03 10:29:17;;;;;;;4.47;2.47;;;;;;;6.09;95.33;93800.06;5027775;28;20088;-78
2021/11/03 10:32:08;;;;;;;4.22;2.20;;;;;;;6.24;93.84;93797.22;5035287;28;20510;-77
2021/11/03 10:34:33;;;;;;;4.72;2.22;;;;;;;6.18;92.62;93793.16;5021474;28;20057;-79
2021/11/03 10:37:05;;;;;;;4.53;2.40;;;;;;;6.11;95.22;93797.97;5028511;28;20041;-77
2021/11/03 10:39:42;;;;;;;5.47;2.50;;;;;;;6.18;93.48;93793.16;5019765;28;20065;-78
2021/11/03 10:42:29;;;;;;;5.85;2.80;;;;;;;5.99;93.58;93780.88;5024881;28;20547;-80
2021/11/03 10:45:33;;;;;;;4.25;2.38;;;;;;;6.14;93.04;93777.25;5044398;28;20139;-78
2021/11/03 10:48:23;;;;;;;7.47;2.45;;;;;;;6.26;93.46;93784.66;5018347;28;20061;-77
2021/11/03 10:50:55;;;;;;;4.60;2.40;;;;;;;6.23;93.56;93787.84;5022123;28;20044;-78
2021/11/03 10:53:47;;;;;;;4.45;2.22;;;;;;;6.05;94.54;93795.41;5024424;28;20038;-78
2021/11/03 10:56:24;;;;;;;4.57;2.60;;;;;;;6.13;95.16;93790.59;5019045;28;20065;-78
2021/11/03 10:58:50;;;;;;;8.30;2.40;;;;;;;6.03;95.07;93789.69;5046609;28;20060;-78
2021/11/03 11:01:31;;;;;;;9.65;2.63;;;;;;;6.06;95.41;93791.75;5031222;28;20038;-78
2021/11/03 11:04:15;;;;;;;4.95;2.78;;;;;;;6.01;95.50;93791.78;5047055;28;20049;-78
2021/11/03 11:06:56;;;;;;;4.88;2.60;;;;;;;5.92;95.04;93796.09;5021838;28;20099;-81
2021/11/03 11:09:25;;;;;;;5.30;2.50;;;;;;;5.96;96.28;93786.63;5029752;28;20053;-77
2021/11/03 11:11:57;;;;;;;5.20;2.60;;;;;;;6.05;96.49;93790.19;5032592;28;20041;-77
2021/11/03 11:14:25;;;;;;;5.28;2.60;;;;;;;6.15;97.04;93789.25;5025770;28;20045;-77
2021/11/03 11:16:56;;;;;;;4.65;2.55;;;;;;;6.01;95.53;93783.97;5038543;28;20167;-78
2021/11/03 11:19:30;;;;;;;6.68;3.00;;;;;;;6.02;97.21;93779.50;5028704;28;20622;-77
2021/11/03 11:22:08;;;;;;;11.20;3.03;;;;;;;6.07;97.10;93769.00;5042110;28;20045;-76
2021/11/03 11:24:57;;;;;;;6.20;3.22;;;;;;;6.04;95.70;93765.13;5020308;28;20042;-77
2021/11/03 11:27:43;;;;;;;4.55;2.70;;;;;;;6.11;97.63;93761.38;5034911;28;20049;-76
2021/11/03 11:30:16;;;;;;;14.55;5.88;;;;;;;6.18;97.04;93752.13;5034920;28;20056;-77
2021/11/03 11:32:57;;;;;;;9.57;4.75;;;;;;;6.18;96.83;93740.91;5023654;28;20704;-78
2021/11/03 11:35:38;;;;;;;5.03;3.00;;;;;;;6.24;96.83;93739.75;5036436;28;20053;-76
2021/11/03 11:38:20;;;;;;;4.07;2.47;;;;;;;6.50;92.80;93741.97;5025610;28;20599;-79
2021/11/03 11:41:02;;;;;;;5.47;2.70;;;;;;;6.31;93.76;93740.19;5032492;28;20088;-78